aviador You're here:

CWEU Decoded Metar

EUREKA in NU, CANADA
Report Time2018-02-19 03:00:00
UTC Time2018-02-19 03:49:14
Flight Rules vfr VFR
Wind180° at 03 kt
W.Rank180° ranks 7
Current wind is below 180° avg. (7.8)
Visibility9999 m
Phenomena:N/A
Clouds:N/A
Expected CloudBase > 1,200 ft AGL from Temp-Dew spread
CeilingNone
Temp-36°C (ISA -51)
Dew Point-39°C (74% RH)
AAT-41.0°C
QNH1017 hPa
Density Alt-6,896 ft
Elevation33 ft
Report Wrong Elevation
Raw Report
CWEU 190300Z 18003KT 15SM SKC M36/M39 A3003 RMK SLP172=

Extra information for CWEU:More info

Metar Taf Metar & Taf Last 4 Metars F.Rules Stats Wind Profile Meteogram Temp Stats Airport Information Weather charts Add Link Nearby VenuesMetar ALERT Operation Metar Decoded Social comments